createdAt,value
2022-09-21T00:00:47.034Z,977.57
2022-09-21T00:01:47.064Z,977.57
2022-09-21T00:02:47.085Z,977.57
2022-09-21T00:03:47.156Z,977.57
2022-09-21T00:04:47.180Z,977.57
2022-09-21T00:05:47.228Z,977.57
2022-09-21T00:06:47.303Z,977.59
2022-09-21T00:07:47.324Z,977.57
2022-09-21T00:08:47.370Z,977.55
2022-09-21T00:09:47.421Z,977.55
2022-09-21T00:10:47.468Z,977.57
2022-09-21T00:11:47.534Z,977.54
2022-09-21T00:12:47.560Z,977.55
2022-09-21T00:13:47.604Z,977.55
2022-09-21T00:14:47.671Z,977.55
2022-09-21T00:15:47.698Z,977.53
2022-09-21T00:16:47.769Z,977.49
2022-09-21T00:17:47.812Z,977.49
2022-09-21T00:18:47.839Z,977.52
2022-09-21T00:19:47.915Z,977.51
2022-09-21T00:20:47.935Z,977.53
2022-09-21T00:21:47.979Z,977.47
2022-09-21T00:22:48.023Z,977.47
2022-09-21T00:23:48.072Z,977.47
2022-09-21T00:24:48.150Z,977.43
2022-09-21T00:25:48.166Z,977.43
2022-09-21T00:26:48.213Z,977.41
2022-09-21T00:27:48.261Z,977.42
2022-09-21T00:28:48.337Z,977.42
2022-09-21T00:29:48.357Z,977.40
2022-09-21T00:30:48.400Z,977.42
2022-09-21T00:31:48.478Z,977.39
2022-09-21T00:32:48.495Z,977.33
2022-09-21T00:33:48.568Z,977.36
2022-09-21T00:34:48.593Z,977.38
2022-09-21T00:35:48.635Z,977.35
2022-09-21T00:36:48.683Z,977.34
2022-09-21T00:37:48.728Z,977.31
2022-09-21T00:38:48.799Z,977.34
2022-09-21T00:39:48.820Z,977.35
2022-09-21T00:40:48.869Z,977.34
2022-09-21T00:41:48.926Z,977.36
2022-09-21T00:42:48.966Z,977.37
2022-09-21T00:43:49.030Z,977.37
2022-09-21T00:44:49.085Z,977.38
2022-09-21T00:45:49.154Z,977.40
2022-09-21T00:46:49.151Z,977.40
2022-09-21T00:47:49.201Z,977.42
2022-09-21T00:48:49.276Z,977.40
2022-09-21T00:49:49.296Z,977.38
2022-09-21T00:50:49.343Z,977.39
2022-09-21T00:51:49.384Z,977.40
2022-09-21T00:52:49.436Z,977.40
2022-09-21T00:53:49.508Z,977.39
2022-09-21T00:54:49.553Z,977.40
2022-09-21T00:55:49.575Z,977.40
2022-09-21T00:56:49.623Z,977.39
2022-09-21T00:57:49.692Z,977.35
2022-09-21T00:58:49.712Z,977.36
2022-09-21T00:59:49.763Z,977.31
2022-09-21T01:00:49.884Z,977.33
2022-09-21T01:01:49.918Z,977.33
2022-09-21T01:02:49.902Z,977.38
2022-09-21T01:03:49.951Z,977.31
2022-09-21T01:04:49.995Z,977.31
2022-09-21T01:05:50.039Z,977.34
2022-09-21T01:06:50.223Z,977.35
2022-09-21T01:07:50.134Z,977.34
2022-09-21T01:08:50.186Z,977.36
2022-09-21T01:09:50.230Z,977.35
2022-09-21T01:10:50.280Z,977.39
2022-09-21T01:11:50.351Z,977.38
2022-09-21T01:12:50.371Z,977.36
2022-09-21T01:13:50.417Z,977.35
2022-09-21T01:14:50.464Z,977.36
2022-09-21T01:15:50.508Z,977.38
2022-09-21T01:16:50.593Z,977.37
2022-09-21T01:17:50.602Z,977.36
2022-09-21T01:18:50.652Z,977.35
2022-09-21T01:19:50.698Z,977.35
2022-09-21T01:20:50.747Z,977.33
2022-09-21T01:21:50.813Z,977.36
2022-09-21T01:22:50.860Z,977.34
2022-09-21T01:23:50.883Z,977.35
2022-09-21T01:24:50.959Z,977.31
2022-09-21T01:25:50.981Z,977.32
2022-09-21T01:26:51.023Z,977.31
2022-09-21T01:27:51.088Z,977.26
2022-09-21T01:28:51.120Z,977.20
2022-09-21T01:29:51.183Z,977.26
2022-09-21T01:30:51.238Z,977.22
2022-09-21T01:31:51.353Z,977.23
2022-09-21T01:32:51.304Z,977.24
2022-09-21T01:33:51.350Z,977.27
2022-09-21T01:34:51.397Z,977.28
2022-09-21T01:35:51.468Z,977.23
2022-09-21T01:36:51.491Z,977.28
2022-09-21T01:37:51.538Z,977.26
2022-09-21T01:38:51.584Z,977.26
2022-09-21T01:39:51.630Z,977.26
2022-09-21T01:40:51.707Z,977.28
2022-09-21T01:41:51.724Z,977.20
2022-09-21T01:42:51.769Z,977.22
2022-09-21T01:43:51.847Z,977.23
2022-09-21T01:44:51.872Z,977.19
2022-09-21T01:45:52.044Z,977.19
2022-09-21T01:46:51.957Z,977.19
2022-09-21T01:47:52.003Z,977.19
2022-09-21T01:48:52.082Z,977.19
2022-09-21T01:49:52.099Z,977.19
2022-09-21T01:50:52.144Z,977.20
2022-09-21T01:51:52.189Z,977.19
2022-09-21T01:52:52.237Z,977.20
2022-09-21T01:53:52.310Z,977.21
2022-09-21T01:54:52.346Z,977.18
2022-09-21T01:55:52.376Z,977.18
2022-09-21T01:56:52.423Z,977.17
2022-09-21T01:57:52.470Z,977.18
2022-09-21T01:58:52.543Z,977.18
2022-09-21T01:59:52.569Z,977.19
2022-09-21T02:00:52.654Z,977.17
2022-09-21T02:01:52.673Z,977.17
2022-09-21T02:02:52.700Z,977.18
2022-09-21T02:03:52.769Z,977.17
2022-09-21T02:04:52.797Z,977.17
2022-09-21T02:05:52.840Z,977.15
2022-09-21T02:06:52.904Z,977.18
2022-09-21T02:07:52.940Z,977.17
2022-09-21T02:08:52.977Z,977.12
2022-09-21T02:09:53.024Z,977.15
2022-09-21T02:10:53.101Z,977.17
2022-09-21T02:11:53.116Z,977.17
2022-09-21T02:12:53.163Z,977.16
2022-09-21T02:13:53.211Z,977.19
2022-09-21T02:14:53.253Z,977.15
2022-09-21T02:15:53.386Z,977.15
2022-09-21T02:16:53.347Z,977.14
2022-09-21T02:17:53.398Z,977.15
2022-09-21T02:18:53.439Z,977.12
2022-09-21T02:19:53.482Z,977.10
2022-09-21T02:20:53.559Z,977.05
2022-09-21T02:21:53.600Z,977.07
2022-09-21T02:22:53.624Z,977.08
2022-09-21T02:23:53.679Z,977.09
2022-09-21T02:24:53.719Z,977.03
2022-09-21T02:25:53.785Z,977.05
2022-09-21T02:26:53.817Z,977.01
2022-09-21T02:27:53.854Z,977.08
2022-09-21T02:28:53.901Z,977.01
2022-09-21T02:29:53.953Z,977.01
2022-09-21T02:30:54.031Z,977.05
2022-09-21T02:31:54.037Z,977.01
2022-09-21T02:32:54.082Z,977.05
2022-09-21T02:33:54.129Z,977.04
2022-09-21T02:34:54.175Z,977.05
2022-09-21T02:35:54.253Z,977.04
2022-09-21T02:36:54.268Z,977.07
2022-09-21T02:37:54.314Z,977.06
2022-09-21T02:38:54.357Z,977.07
2022-09-21T02:39:54.426Z,977.07
2022-09-21T02:40:54.452Z,977.04
2022-09-21T02:41:54.498Z,977.02
2022-09-21T02:42:54.553Z,977.00
2022-09-21T02:43:54.738Z,977.01
2022-09-21T02:44:54.636Z,976.99
2022-09-21T02:45:54.682Z,977.03
2022-09-21T02:46:54.789Z,977.03
2022-09-21T02:47:54.781Z,977.02
2022-09-21T02:48:54.844Z,977.03
2022-09-21T02:49:54.900Z,977.02
2022-09-21T02:50:54.914Z,977.03
2022-09-21T02:51:54.965Z,977.03
2022-09-21T02:52:55.003Z,977.06
2022-09-21T02:53:55.055Z,977.03
2022-09-21T02:54:55.117Z,977.01
2022-09-21T02:55:56.594Z,977.06
2022-09-21T02:56:55.189Z,977.04
2022-09-21T02:57:55.234Z,977.06
2022-09-21T02:58:55.288Z,977.05
2022-09-21T02:59:55.325Z,977.06
2022-09-21T03:00:55.477Z,977.05
2022-09-21T03:01:55.466Z,977.11
2022-09-21T03:02:55.463Z,977.09
2022-09-21T03:03:55.509Z,977.07
2022-09-21T03:04:55.553Z,977.11
2022-09-21T03:05:55.599Z,977.08
2022-09-21T03:06:55.674Z,977.11
2022-09-21T03:14:45.306Z,977.06
2022-09-21T03:15:45.346Z,977.06
2022-09-21T03:16:45.372Z,977.10
2022-09-21T03:17:45.455Z,977.12
2022-09-21T03:20:42.699Z,977.17
2022-09-21T03:21:44.812Z,977.16
2022-09-21T03:22:42.762Z,977.18
2022-09-21T03:23:42.836Z,977.19
2022-09-21T03:24:42.885Z,977.17
2022-09-21T03:25:42.903Z,977.21
2022-09-21T03:26:42.949Z,977.21
2022-09-21T03:27:42.990Z,977.24
2022-09-21T03:28:43.036Z,977.25
2022-09-21T03:29:43.102Z,977.25
2022-09-21T03:30:43.157Z,977.24
2022-09-21T03:31:43.171Z,977.21
2022-09-21T03:32:43.223Z,977.21
2022-09-21T03:33:43.262Z,977.22
2022-09-21T03:34:43.314Z,977.22
2022-09-21T03:35:43.372Z,977.25
2022-09-21T03:36:43.426Z,977.24
2022-09-21T03:37:43.442Z,977.24
2022-09-21T03:38:43.487Z,977.21
2022-09-21T03:39:43.533Z,977.25
2022-09-21T03:40:43.580Z,977.23
2022-09-21T03:41:43.650Z,977.27
2022-09-21T03:42:43.708Z,977.23
2022-09-21T03:43:43.717Z,977.23
2022-09-21T03:44:43.760Z,977.23
2022-09-21T03:45:43.808Z,977.23
2022-09-21T03:46:43.860Z,977.22
2022-09-21T03:47:43.927Z,977.21
2022-09-21T03:48:43.976Z,977.21
2022-09-21T03:49:43.994Z,977.23
2022-09-21T03:50:44.037Z,977.24
2022-09-21T03:51:44.080Z,977.25
2022-09-21T03:52:44.129Z,977.25
2022-09-21T03:53:44.195Z,977.26
2022-09-21T03:54:44.243Z,977.28
2022-09-21T03:55:44.265Z,977.22
2022-09-21T03:56:44.313Z,977.27
2022-09-21T03:57:44.358Z,977.23
2022-09-21T03:58:44.424Z,977.19
2022-09-21T03:59:44.461Z,977.23
2022-09-21T04:00:44.536Z,977.18
2022-09-21T04:01:44.572Z,977.17
2022-09-21T04:02:44.654Z,977.23
2022-09-21T04:03:44.631Z,977.23
2022-09-21T04:04:44.676Z,977.20
2022-09-21T04:05:44.745Z,977.26
2022-09-21T04:06:44.777Z,977.22
2022-09-21T04:07:44.810Z,977.22
2022-09-21T04:08:44.861Z,977.22
2022-09-21T04:09:44.912Z,977.19
2022-09-21T04:10:44.970Z,977.24
2022-09-21T04:11:44.994Z,977.18
2022-09-21T04:12:45.039Z,977.23
2022-09-21T04:13:45.086Z,977.22
2022-09-21T04:14:45.140Z,977.20
2022-09-21T04:15:45.231Z,977.22
2022-09-21T04:16:45.244Z,977.20
2022-09-21T04:17:45.303Z,977.22
2022-09-21T04:18:45.317Z,977.21
2022-09-21T04:19:45.358Z,977.24
2022-09-21T04:20:45.399Z,977.23
2022-09-21T04:21:45.450Z,977.29
2022-09-21T04:22:45.519Z,977.27
2022-09-21T04:23:45.543Z,977.30
2022-09-21T04:24:45.584Z,977.27
2022-09-21T04:25:45.631Z,977.32
2022-09-21T04:26:45.679Z,977.32
2022-09-21T04:27:45.751Z,977.34
2022-09-21T04:28:45.761Z,977.34
2022-09-21T04:29:45.847Z,977.35
2022-09-21T04:30:45.901Z,977.32
2022-09-21T04:31:45.902Z,977.31
2022-09-21T04:32:45.950Z,977.34
2022-09-21T04:33:45.991Z,977.33
2022-09-21T04:34:46.067Z,977.34
2022-09-21T04:35:46.082Z,977.30
2022-09-21T04:36:46.129Z,977.34
2022-09-21T04:37:46.195Z,977.35
2022-09-21T04:38:46.221Z,977.33
2022-09-21T04:39:46.272Z,977.36
2022-09-21T04:40:46.310Z,977.35
2022-09-21T04:41:46.383Z,977.34
2022-09-21T04:42:46.396Z,977.34
2022-09-21T04:43:46.441Z,977.36
2022-09-21T04:44:46.489Z,977.32
2022-09-21T04:45:46.533Z,977.38
2022-09-21T04:46:46.604Z,977.34
2022-09-21T04:47:46.628Z,977.37
2022-09-21T04:48:46.681Z,977.36
2022-09-21T04:49:46.759Z,977.38
2022-09-21T04:50:46.763Z,977.41
2022-09-21T04:51:46.837Z,977.35
2022-09-21T04:52:46.871Z,977.40
2022-09-21T04:53:46.891Z,977.41
2022-09-21T04:54:46.933Z,977.41
2022-09-21T04:55:46.983Z,977.43
2022-09-21T07:05:05.883Z,977.81
2022-09-21T07:05:19.327Z,977.79
2022-09-21T07:06:19.395Z,977.79
2022-09-21T07:07:19.445Z,977.83
2022-09-21T07:10:20.867Z,977.84
2022-09-21T07:11:19.627Z,977.88
2022-09-21T07:12:19.708Z,977.88
2022-09-21T07:13:19.725Z,977.93
2022-09-21T07:14:19.814Z,977.93
2022-09-21T07:15:19.844Z,977.91
2022-09-21T07:16:19.898Z,977.89
2022-09-21T07:17:19.919Z,977.86
2022-09-21T07:18:19.974Z,977.90
2022-09-21T07:19:20.032Z,977.85
2022-09-21T07:20:20.034Z,977.90
2022-09-21T07:21:20.127Z,977.92
2022-09-21T07:22:20.184Z,977.90
2022-09-21T07:23:20.217Z,977.89
2022-09-21T07:24:20.329Z,977.91
2022-09-21T07:25:20.320Z,977.94
2022-09-21T07:26:20.377Z,977.92
2022-09-21T07:27:20.413Z,977.91
2022-09-21T07:28:20.460Z,977.94
2022-09-21T07:29:20.600Z,977.99
2022-09-21T07:30:20.583Z,977.94
2022-09-21T07:31:20.698Z,977.96
2022-09-21T07:32:20.638Z,977.98
2022-09-21T07:33:20.685Z,977.97
2022-09-21T07:34:20.759Z,978.02
2022-09-21T07:35:20.787Z,978.00
2022-09-21T07:36:20.839Z,978.00
2022-09-21T07:37:20.892Z,978.03
2022-09-21T07:38:20.963Z,978.03
2022-09-21T07:39:20.995Z,977.99
2022-09-21T07:40:25.055Z,978.02
2022-09-21T07:41:21.140Z,978.02
2022-09-21T07:42:21.226Z,978.04
2022-09-21T07:43:21.231Z,978.05
2022-09-21T07:44:21.268Z,978.06
2022-09-21T07:45:21.387Z,978.06
2022-09-21T07:46:21.392Z,978.01
2022-09-21T07:47:21.525Z,978.02
2022-09-21T07:48:21.486Z,977.99
2022-09-21T07:49:21.559Z,978.04
2022-09-21T07:50:21.652Z,978.04
2022-09-21T07:51:21.646Z,978.03
2022-09-21T07:52:21.707Z,978.06
2022-09-21T07:53:21.771Z,978.04
2022-09-21T07:54:21.887Z,978.04
2022-09-21T07:55:21.888Z,978.03
2022-09-21T07:56:21.875Z,978.04
2022-09-21T07:57:21.926Z,978.02
2022-09-21T07:58:21.981Z,978.01
2022-09-21T07:59:22.033Z,978.02
2022-09-21T08:00:22.117Z,978.00
2022-09-21T08:01:22.184Z,978.00
2022-09-21T08:02:22.271Z,978.02
2022-09-21T08:03:22.242Z,978.02
2022-09-21T08:04:22.290Z,977.99
2022-09-21T08:05:22.392Z,978.00
2022-09-21T08:06:22.397Z,977.97
2022-09-21T08:07:22.466Z,977.98
2022-09-21T08:08:22.529Z,978.00
2022-09-21T08:09:22.558Z,978.00
2022-09-21T08:10:22.749Z,978.00
2022-09-21T08:11:22.664Z,977.97
2022-09-21T08:12:22.713Z,977.97
2022-09-21T08:13:22.772Z,978.01
2022-09-21T08:14:26.318Z,977.95
2022-09-21T08:15:47.016Z,977.95
2022-09-21T08:16:22.970Z,977.97
2022-09-21T08:17:23.001Z,977.97
2022-09-21T08:18:23.057Z,977.96
2022-09-21T08:19:23.084Z,977.96
2022-09-21T08:20:23.209Z,977.98
2022-09-21T08:21:23.188Z,977.95
2022-09-21T08:22:23.242Z,977.94
2022-09-21T08:23:23.319Z,977.94
2022-09-21T08:24:23.352Z,977.92
2022-09-21T08:25:23.401Z,977.89
2022-09-21T08:26:23.457Z,977.89
2022-09-21T08:27:25.286Z,977.89
2022-09-21T08:28:23.563Z,977.92
2022-09-21T08:29:23.616Z,977.85
2022-09-21T08:30:23.680Z,977.86
2022-09-21T08:31:23.749Z,977.85
2022-09-21T08:32:49.398Z,977.85
2022-09-21T08:33:44.855Z,977.88
2022-09-21T08:34:23.882Z,977.89
2022-09-21T08:35:23.934Z,977.89
2022-09-21T08:36:24.013Z,977.92
2022-09-21T08:37:24.041Z,977.87
2022-09-21T08:38:24.094Z,977.93
2022-09-21T08:39:24.181Z,977.88
2022-09-21T08:40:24.290Z,977.88
2022-09-21T08:41:24.254Z,977.85
2022-09-21T08:42:24.307Z,977.87
2022-09-21T08:43:24.359Z,977.84
2022-09-21T08:44:24.445Z,977.87
2022-09-21T08:45:24.467Z,977.85
2022-09-21T08:46:24.654Z,977.85
2022-09-21T08:47:24.572Z,977.88
2022-09-21T08:48:29.024Z,977.88
2022-09-21T08:49:24.704Z,977.89
2022-09-21T08:50:24.736Z,977.86
2022-09-21T08:51:24.785Z,977.89
2022-09-21T08:52:24.877Z,977.89
2022-09-21T08:53:24.891Z,977.88
2022-09-21T08:54:24.948Z,977.91
2022-09-21T08:55:25.004Z,977.89
2022-09-21T08:56:33.032Z,977.90
2022-09-21T08:57:25.134Z,977.90
2022-09-21T08:58:25.160Z,977.85
2022-09-21T08:59:25.213Z,977.92
2022-09-21T09:00:25.331Z,977.85
2022-09-21T09:01:25.392Z,977.82
2022-09-21T09:02:25.447Z,977.78
2022-09-21T09:03:25.428Z,977.84
2022-09-21T09:04:25.483Z,977.80
2022-09-21T09:05:25.534Z,977.82
2022-09-21T09:06:26.878Z,977.80
2022-09-21T09:07:25.668Z,977.78
2022-09-21T09:08:25.695Z,977.76
2022-09-21T09:09:25.747Z,977.76
2022-09-21T09:10:25.819Z,977.80
2022-09-21T09:11:25.859Z,977.59
2022-09-21T09:12:25.944Z,977.68
2022-09-21T09:13:25.964Z,977.68
2022-09-21T09:14:26.043Z,977.67
2022-09-21T09:15:26.074Z,977.69
2022-09-21T09:16:26.192Z,977.71
2022-09-21T09:17:26.205Z,977.68
2022-09-21T09:18:26.231Z,977.64
2022-09-21T09:19:26.285Z,977.63
2022-09-21T09:20:26.343Z,977.62
2022-09-21T09:21:31.444Z,977.64
2022-09-21T09:22:26.480Z,977.64
2022-09-21T09:23:26.529Z,977.64
2022-09-21T09:24:26.561Z,977.59
2022-09-21T09:25:26.614Z,977.54
2022-09-21T09:26:26.665Z,977.56
2022-09-21T09:27:26.738Z,977.48
2022-09-21T09:28:26.770Z,977.51
2022-09-21T09:29:26.829Z,977.53
2022-09-21T09:30:26.936Z,977.49
2022-09-21T09:31:26.972Z,977.48
2022-09-21T09:32:27.538Z,977.42
2022-09-21T09:33:27.078Z,977.35
2022-09-21T09:34:27.099Z,977.33
2022-09-21T09:35:29.147Z,977.46
2022-09-21T09:36:53.862Z,977.49
2022-09-21T09:40:36.211Z,977.44
2022-09-21T09:41:36.190Z,977.37
2022-09-21T09:42:36.249Z,977.32
2022-09-21T09:43:36.272Z,977.33
2022-09-21T09:44:36.368Z,977.27
2022-09-21T09:49:27.173Z,977.26
2022-09-21T09:50:00.206Z,977.26
2022-09-21T09:51:00.217Z,977.22
2022-09-21T09:52:00.272Z,977.26
2022-09-21T09:53:00.320Z,977.23
2022-09-21T09:54:00.377Z,977.22
2022-09-21T09:55:00.450Z,977.23
2022-09-21T09:56:00.503Z,977.18
2022-09-21T09:57:00.527Z,977.11
2022-09-21T09:58:13.355Z,977.14
2022-09-21T09:59:00.633Z,977.18
2022-09-21T10:00:00.682Z,977.16
2022-09-21T10:01:00.763Z,977.15
2022-09-21T10:02:00.891Z,977.14
2022-09-21T10:03:00.841Z,977.06
2022-09-21T10:04:20.418Z,977.03
2022-09-21T10:05:00.999Z,977.06
2022-09-21T10:06:01.019Z,977.10
2022-09-21T10:07:01.048Z,977.10
2022-09-21T10:08:03.985Z,977.06
2022-09-21T10:09:11.419Z,977.06
2022-09-21T10:10:01.213Z,977.03
2022-09-21T10:12:28.365Z,977.06
2022-09-21T10:12:38.006Z,977.04
2022-09-21T10:13:29.220Z,976.99
2022-09-21T10:14:29.234Z,977.03
2022-09-21T10:15:29.291Z,976.98
2022-09-21T10:16:29.463Z,976.97
2022-09-21T10:17:29.426Z,976.97
2022-09-21T10:18:29.469Z,976.98
2022-09-21T10:19:29.497Z,976.94
2022-09-21T10:20:29.553Z,976.91
2022-09-21T10:21:29.608Z,976.81
2022-09-21T10:22:29.667Z,976.88
2022-09-21T10:23:29.751Z,976.89
2022-09-21T10:24:29.772Z,976.88
2022-09-21T10:25:29.819Z,976.93
2022-09-21T10:26:29.872Z,976.93
2022-09-21T10:27:29.924Z,976.88
2022-09-21T10:28:30.006Z,976.84
2022-09-21T10:29:30.045Z,976.82
2022-09-21T10:30:30.119Z,976.78
2022-09-21T10:31:30.259Z,976.79
2022-09-21T10:32:30.198Z,976.81
2022-09-21T10:33:30.247Z,976.75
2022-09-21T10:34:30.332Z,976.73
2022-09-21T10:35:30.411Z,976.69
2022-09-21T10:36:30.430Z,976.69
2022-09-21T10:37:30.477Z,976.67
2022-09-21T10:38:30.522Z,976.69
2022-09-21T10:39:30.579Z,976.66
2022-09-21T10:40:30.798Z,976.64
2022-09-21T10:41:30.701Z,976.67
2022-09-21T10:42:30.739Z,976.66
2022-09-21T10:43:31.839Z,976.63
2022-09-21T10:44:30.850Z,976.62
2022-09-21T10:45:30.938Z,976.60
2022-09-21T10:46:31.128Z,976.61
2022-09-21T10:47:31.019Z,976.65
2022-09-21T10:48:31.076Z,976.68
2022-09-21T10:49:31.138Z,976.57
2022-09-21T10:50:31.207Z,976.72
2022-09-21T10:51:31.242Z,976.66
2022-09-21T10:52:31.301Z,976.65
2022-09-21T10:53:31.382Z,976.67
2022-09-21T10:54:31.406Z,976.63
2022-09-21T10:55:31.465Z,976.63
2022-09-21T10:56:31.589Z,976.65
2022-09-21T10:57:31.574Z,976.66
2022-09-21T10:58:31.664Z,976.62
2022-09-21T10:59:31.692Z,976.55
2022-09-21T11:00:31.748Z,976.54
2022-09-21T11:01:31.858Z,976.58
2022-09-21T11:02:31.947Z,976.56
2022-09-21T11:03:31.947Z,976.59
2022-09-21T11:04:31.978Z,976.59
2022-09-21T11:05:32.028Z,976.53
2022-09-21T11:06:32.090Z,976.57
2022-09-21T11:07:32.142Z,976.52
2022-09-21T11:08:32.216Z,976.50
2022-09-21T11:09:32.259Z,976.50
2022-09-21T11:10:34.322Z,976.56
2022-09-21T11:11:32.368Z,976.52
2022-09-21T11:12:32.424Z,976.54
2022-09-21T11:13:32.506Z,976.49
2022-09-21T11:14:32.563Z,976.50
2022-09-21T11:15:32.631Z,976.52
2022-09-21T11:16:32.654Z,976.45
2022-09-21T11:17:32.706Z,976.45
2022-09-21T11:18:32.799Z,976.41
2022-09-21T11:19:32.823Z,976.42
2022-09-21T11:20:32.885Z,976.51
2022-09-21T11:21:32.940Z,976.46
2022-09-21T11:22:32.993Z,976.46
2022-09-21T11:23:33.078Z,976.46
2022-09-21T11:24:33.138Z,976.43
2022-09-21T11:25:35.034Z,976.27
2022-09-21T11:26:33.292Z,976.35
2022-09-21T11:27:33.282Z,976.35
2022-09-21T11:28:33.369Z,976.34
2022-09-21T11:29:33.402Z,976.39
2022-09-21T11:30:33.558Z,976.36
2022-09-21T11:31:33.521Z,976.37
2022-09-21T11:32:33.613Z,976.38
2022-09-21T11:33:33.659Z,976.29
2022-09-21T11:34:33.695Z,976.31
2022-09-21T11:35:33.754Z,976.36
2022-09-21T11:36:33.863Z,976.27
2022-09-21T11:37:33.870Z,976.28
2022-09-21T11:38:34.393Z,976.33
2022-09-21T11:39:33.998Z,976.30
2022-09-21T11:40:34.164Z,976.27
2022-09-21T11:41:34.129Z,976.28
2022-09-21T11:42:34.162Z,976.23
2022-09-21T11:43:34.271Z,976.26
2022-09-21T11:44:34.278Z,976.24
2022-09-21T11:45:34.337Z,976.25
2022-09-21T11:46:34.440Z,976.25
2022-09-21T11:47:34.457Z,976.18
2022-09-21T11:48:34.540Z,976.18
2022-09-21T11:49:34.573Z,976.19
2022-09-21T11:50:34.634Z,976.12
2022-09-21T11:51:34.699Z,976.20
2022-09-21T11:52:34.748Z,976.13
2022-09-21T11:53:34.838Z,976.13
2022-09-21T11:54:34.895Z,976.13
2022-09-21T11:55:34.928Z,976.13
2022-09-21T11:56:34.985Z,976.12
2022-09-21T11:57:35.047Z,976.10
2022-09-21T11:58:35.117Z,976.07
2022-09-21T11:59:35.195Z,976.12
2022-09-21T12:00:35.222Z,976.11
2022-09-21T12:01:35.282Z,976.11
2022-09-21T12:02:35.546Z,976.13
2022-09-21T12:03:35.400Z,976.11
2022-09-21T12:04:35.483Z,976.06
2022-09-21T12:05:35.544Z,976.10
2022-09-21T12:06:35.595Z,976.04
2022-09-21T12:07:35.641Z,976.13
2022-09-21T12:08:37.590Z,976.10
2022-09-21T12:09:35.762Z,976.12
2022-09-21T12:10:35.842Z,976.11
2022-09-21T12:11:35.878Z,976.09
2022-09-21T12:12:35.942Z,976.16
2022-09-21T12:17:14.081Z,976.09
2022-09-21T12:18:06.896Z,976.11
2022-09-21T12:19:06.987Z,976.13
2022-09-21T12:20:07.040Z,976.09
2022-09-21T12:21:07.069Z,976.09
2022-09-21T12:22:07.139Z,976.13
2022-09-21T12:23:07.192Z,976.10
2022-09-21T12:24:07.254Z,976.05
2022-09-21T12:25:07.342Z,975.98
2022-09-21T12:26:07.385Z,976.06
2022-09-21T12:27:07.433Z,976.05
2022-09-21T12:28:07.518Z,976.04
2022-09-21T12:29:07.552Z,976.04
2022-09-21T12:30:07.630Z,975.97
2022-09-21T12:31:07.732Z,976.01
2022-09-21T12:35:40.381Z,975.89
2022-09-21T12:36:41.834Z,975.95
2022-09-21T12:37:40.455Z,975.94
2022-09-21T12:38:40.505Z,975.97
2022-09-21T12:39:40.561Z,975.95
2022-09-21T12:40:40.711Z,975.92
2022-09-21T12:41:40.682Z,975.92
2022-09-21T12:42:40.775Z,975.91
2022-09-21T12:43:40.820Z,975.87
2022-09-21T12:44:43.874Z,975.84
2022-09-21T12:45:40.940Z,975.92
2022-09-21T12:46:40.986Z,975.91
2022-09-21T12:47:41.074Z,975.93
2022-09-21T12:48:41.114Z,975.91
2022-09-21T12:49:41.170Z,975.92
2022-09-21T12:50:41.245Z,975.92
2022-09-21T12:51:41.327Z,975.91
2022-09-21T12:52:41.355Z,975.93
2022-09-21T12:53:41.416Z,975.86
2022-09-21T12:54:44.181Z,975.89
2022-09-21T12:55:41.549Z,975.90
2022-09-21T12:56:41.635Z,975.81
2022-09-21T12:57:58.601Z,975.79
2022-09-21T12:58:41.724Z,975.89
2022-09-21T12:59:41.788Z,975.92
2022-09-21T13:00:41.884Z,975.86
2022-09-21T13:01:42.039Z,975.84
2022-09-21T13:02:42.144Z,975.82
2022-09-21T13:03:42.041Z,975.86
2022-09-21T13:04:42.099Z,975.82
2022-09-21T13:05:42.161Z,975.85
2022-09-21T13:06:42.236Z,975.84
2022-09-21T13:07:42.273Z,975.79
2022-09-21T13:08:42.399Z,975.81
2022-09-21T13:09:42.420Z,975.78
2022-09-21T13:10:42.459Z,975.77
2022-09-21T13:11:42.522Z,975.82
2022-09-21T13:12:42.583Z,975.82
2022-09-21T13:13:42.640Z,975.82
2022-09-21T13:14:42.730Z,975.81
2022-09-21T13:15:42.768Z,975.78
2022-09-21T13:16:42.900Z,975.79
2022-09-21T13:17:42.895Z,975.78
2022-09-21T13:18:42.957Z,975.75
2022-09-21T13:19:43.040Z,975.77
2022-09-21T13:20:43.077Z,975.78
2022-09-21T13:21:43.139Z,975.75
2022-09-21T13:22:43.205Z,975.77
2022-09-21T13:23:43.260Z,975.75
2022-09-21T13:24:43.358Z,975.74
2022-09-21T13:25:43.388Z,975.73
2022-09-21T13:26:43.449Z,975.76
2022-09-21T13:27:43.509Z,975.75
2022-09-21T13:28:43.579Z,975.70
2022-09-21T13:29:43.671Z,975.63
2022-09-21T13:30:43.702Z,975.66
2022-09-21T13:31:43.807Z,975.66
2022-09-21T13:32:43.826Z,975.62
2022-09-21T13:33:43.892Z,975.64
2022-09-21T13:34:51.772Z,975.74
2022-09-21T13:35:44.026Z,975.73
2022-09-21T13:40:57.349Z,975.64
2022-09-21T13:42:02.487Z,975.62
2022-09-21T13:42:30.409Z,975.61
2022-09-21T13:43:30.522Z,975.63
2022-09-21T13:44:30.526Z,975.59
2022-09-21T13:45:30.634Z,975.64
2022-09-21T13:46:30.821Z,975.67
2022-09-21T13:47:30.741Z,975.75
2022-09-21T13:48:30.771Z,975.72
2022-09-21T13:49:30.839Z,975.80
2022-09-21T13:50:30.899Z,975.88
2022-09-21T13:51:30.959Z,975.98
2022-09-21T13:52:31.050Z,976.08
2022-09-21T13:53:31.108Z,976.06
2022-09-21T13:54:31.149Z,976.13
2022-09-21T13:55:31.210Z,976.17
2022-09-21T13:56:31.272Z,976.08
2022-09-21T13:57:31.365Z,976.02
2022-09-21T13:58:31.397Z,975.94
2022-09-21T13:59:31.459Z,975.97
2022-09-21T14:00:31.519Z,975.89
2022-09-21T14:01:47.818Z,975.86
2022-09-21T14:02:31.855Z,975.84
2022-09-21T14:03:31.705Z,975.81
2022-09-21T14:04:31.769Z,975.86
2022-09-21T14:05:31.838Z,975.84
2022-09-21T14:06:31.894Z,975.81
2022-09-21T14:07:32.025Z,975.75
2022-09-21T14:08:32.054Z,975.79
2022-09-21T14:09:32.081Z,975.78
2022-09-21T14:10:32.151Z,975.77
2022-09-21T14:11:32.206Z,975.87
2022-09-21T14:12:32.351Z,975.77
2022-09-21T14:13:32.359Z,975.75
2022-09-21T14:14:33.054Z,975.85
2022-09-21T14:15:32.472Z,975.80
2022-09-21T14:16:32.586Z,975.86
2022-09-21T14:17:32.582Z,975.92
2022-09-21T14:18:32.659Z,975.91
2022-09-21T14:19:32.718Z,975.85
2022-09-21T14:20:35.870Z,975.85
2022-09-21T14:21:32.827Z,975.82
2022-09-21T14:22:32.881Z,975.85
2022-09-21T14:23:32.957Z,975.87
2022-09-21T14:24:33.032Z,975.84
2022-09-21T14:25:33.064Z,975.90
2022-09-21T14:26:33.144Z,975.81
2022-09-21T14:27:33.194Z,975.95
2022-09-21T14:28:33.266Z,976.30
2022-09-21T14:29:33.347Z,976.55
2022-09-21T14:30:33.434Z,976.30
2022-09-21T14:31:33.493Z,976.17
2022-09-21T14:32:33.498Z,976.06
2022-09-21T14:33:33.554Z,976.00
2022-09-21T14:34:33.647Z,976.02
2022-09-21T14:35:33.940Z,976.07
2022-09-21T14:36:33.738Z,976.03
2022-09-21T14:37:33.804Z,976.05
2022-09-21T14:38:33.863Z,976.03
2022-09-21T14:39:33.955Z,976.04
2022-09-21T14:40:34.031Z,976.03
2022-09-21T14:41:34.073Z,975.96
2022-09-21T14:42:34.134Z,975.99
2022-09-21T14:43:34.197Z,975.95
2022-09-21T14:44:34.233Z,975.95
2022-09-21T14:45:34.290Z,975.93
2022-09-21T14:46:34.399Z,975.87
2022-09-21T14:47:34.414Z,975.85
2022-09-21T14:48:34.624Z,975.85
2022-09-21T14:49:34.563Z,975.74
2022-09-21T14:50:34.622Z,975.86
2022-09-21T14:51:34.658Z,975.95
2022-09-21T14:52:34.720Z,975.97
2022-09-21T14:53:34.780Z,975.93
2022-09-21T14:54:34.864Z,975.97
2022-09-21T14:55:35.054Z,975.94
2022-09-21T14:56:34.959Z,975.94
2022-09-21T14:57:35.045Z,975.93
2022-09-21T14:58:35.106Z,975.79
2022-09-21T14:59:36.071Z,975.67
2022-09-21T15:00:47.140Z,975.57
2022-09-21T15:06:12.595Z,975.85
2022-09-21T15:06:45.568Z,975.85
2022-09-21T15:07:45.628Z,976.01
2022-09-21T15:08:45.677Z,975.94
2022-09-21T15:09:45.731Z,975.89